Time;durP1;ratioP1;P1;durP2;ratioP2;P2;SDS_P1;SDS_P2;PMS_P1;PMS_P2;Temp;Humidity;BMP_temperature;BMP_pressure;BME280_temperature;BME280_humidity;BME280_pressure;Samples;Min_cycle;Max_cycle;Signal;HPM_P1;HPM_P2
2022/12/20 00:01:58;;;;;;;14.70;9.27;;;1.80;97.30;;;1.49;62.53;96768.78;5083540;28;20589;-57
2022/12/20 00:04:25;;;;;;;21.10;10.53;;;1.80;97.40;;;1.48;63.05;96774.88;5078776;28;21060;-58
2022/12/20 00:06:52;;;;;;;14.10;8.33;;;1.80;97.30;;;1.45;62.37;96773.19;5080136;28;20974;-55
2022/12/20 00:09:20;;;;;;;13.50;8.50;;;1.80;97.30;;;1.44;63.07;96781.84;5085065;28;20457;-56
2022/12/20 00:11:47;;;;;;;15.83;7.90;;;1.80;97.30;;;1.40;62.75;96788.84;5079900;28;20454;-56
2022/12/20 00:14:14;;;;;;;16.43;8.90;;;1.80;97.40;;;1.41;62.76;96790.56;5083903;28;20942;-57
2022/12/20 00:16:42;;;;;;;14.73;8.60;;;1.80;97.40;;;1.40;62.92;96791.44;5085193;28;20954;-57
2022/12/20 00:19:11;;;;;;;14.83;8.70;;;1.80;97.50;;;1.41;62.51;96793.16;5082806;28;20450;-54
2022/12/20 00:21:39;;;;;;;16.57;7.87;;;1.80;97.50;;;1.46;62.43;96793.06;5081024;28;20489;-55
2022/12/20 00:24:07;;;;;;;18.50;9.73;;;1.80;97.40;;;1.46;62.36;96795.66;5085648;28;20908;-57
2022/12/20 00:26:35;;;;;;;20.40;9.90;;;1.80;97.40;;;1.47;62.84;96783.53;5087789;28;20841;-55
2022/12/20 00:29:04;;;;;;;16.77;9.47;;;1.80;97.20;;;1.49;62.31;96781.72;5081976;28;20516;-55
2022/12/20 00:31:31;;;;;;;17.03;8.90;;;1.80;97.20;;;1.51;62.86;96783.41;5084517;28;20893;-56
2022/12/20 00:33:59;;;;;;;13.50;7.43;;;1.80;97.10;;;1.51;62.72;96786.00;5075012;28;20951;-58
2022/12/20 00:36:30;;;;;;;15.50;7.80;;;1.80;97.00;;;1.52;62.69;96779.06;5086255;28;20502;-57
2022/12/20 00:38:58;;;;;;;16.97;8.67;;;1.90;97.00;;;1.53;62.56;96780.78;5081672;28;20547;-58
2022/12/20 00:41:26;;;;;;;12.77;8.53;;;1.80;96.90;;;1.52;62.30;96781.66;5084720;28;20473;-56
2022/12/20 00:43:53;;;;;;;10.37;7.40;;;1.90;96.70;;;1.52;61.69;96779.94;5087621;28;20470;-56
2022/12/20 00:46:22;;;;;;;18.07;8.63;;;1.90;96.60;;;1.46;61.94;96779.22;5084793;28;20649;-56
2022/12/20 00:48:49;;;;;;;15.70;8.13;;;1.80;96.60;;;1.46;61.47;96777.50;5079394;28;20567;-57
2022/12/20 00:51:19;;;;;;;12.83;7.60;;;1.80;96.60;;;1.45;61.33;96780.97;5084329;28;20556;-55
2022/12/20 00:53:48;;;;;;;12.03;7.27;;;1.80;96.50;;;1.44;61.59;96789.63;5081850;28;20462;-55
2022/12/20 00:56:15;;;;;;;18.40;9.60;;;1.80;96.60;;;1.39;61.92;96792.31;5081607;28;20470;-53
2022/12/20 00:58:43;;;;;;;15.40;7.10;;;1.80;96.30;;;1.37;61.54;96783.75;5083072;28;20446;-55
2022/12/20 01:01:17;;;;;;;12.60;8.13;;;1.70;96.20;;;1.35;61.30;96785.53;5082249;28;21220;-53
2022/12/20 01:03:44;;;;;;;14.50;7.73;;;1.70;96.20;;;1.31;61.50;96783.88;5083841;28;20949;-57
2022/12/20 01:06:12;;;;;;;13.77;7.40;;;1.70;96.20;;;1.30;61.21;96792.56;5079537;28;20826;-56
2022/12/20 01:08:39;;;;;;;10.03;6.00;;;1.70;96.20;;;1.27;61.95;96790.06;5086768;28;20482;-58
2022/12/20 01:11:10;;;;;;;8.27;6.57;;;1.70;96.10;;;1.21;62.12;96778.06;5083117;28;21017;-58
2022/12/20 01:13:39;;;;;;;10.63;6.33;;;1.60;96.10;;;1.22;60.79;96790.16;5084087;28;20496;-54
2022/12/20 01:16:07;;;;;;;9.87;6.00;;;1.60;96.00;;;1.22;61.28;96773.72;5084586;28;20842;-57
2022/12/20 01:18:35;;;;;;;10.50;7.13;;;1.60;96.00;;;1.19;61.50;96768.63;5083267;28;20454;-58
2022/12/20 01:21:03;;;;;;;10.63;7.50;;;1.60;96.00;;;1.17;60.50;96780.78;5084908;28;20860;-59
2022/12/20 01:23:30;;;;;;;12.30;7.10;;;1.50;95.90;;;1.14;61.11;96775.66;5084027;28;20489;-56
2022/12/20 01:25:59;;;;;;;12.20;7.23;;;1.50;95.90;;;1.14;61.95;96763.53;5078506;28;20470;-56
2022/12/20 01:28:28;;;;;;;12.10;7.27;;;1.50;96.00;;;1.14;60.99;96752.34;5078147;28;20450;-57
2022/12/20 01:30:56;;;;;;;12.47;7.27;;;1.50;96.10;;;1.14;61.73;96755.78;5085152;28;20477;-58
2022/12/20 01:33:23;;;;;;;14.30;8.63;;;1.50;96.00;;;1.14;60.96;96754.94;5083270;28;20961;-54
2022/12/20 01:35:57;;;;;;;11.57;7.33;;;1.50;96.10;;;1.12;61.41;96754.13;5082150;28;20509;-56
2022/12/20 01:38:25;;;;;;;13.27;6.90;;;1.50;95.90;;;1.10;61.04;96764.53;5082083;28;20842;-56
2022/12/20 01:40:52;;;;;;;11.23;6.20;;;1.50;96.00;;;1.09;61.11;96752.44;5078072;28;20470;-54
2022/12/20 01:43:19;;;;;;;11.03;5.77;;;1.50;96.00;;;1.09;60.39;96749.84;5087051;28;20482;-55
2022/12/20 01:45:48;;;;;;;9.70;7.07;;;1.40;95.90;;;1.06;61.39;96745.59;5078971;28;20837;-55
2022/12/20 01:48:18;;;;;;;14.97;7.80;;;1.40;95.90;;;1.05;61.53;96745.63;5078656;28;20566;-57
2022/12/20 01:50:46;;;;;;;12.37;7.17;;;1.40;95.80;;;1.04;60.78;96738.75;5080846;28;20601;-57
2022/12/20 01:53:13;;;;;;;12.77;7.47;;;1.40;95.80;;;1.02;61.19;96741.38;5080846;28;20461;-57
2022/12/20 01:55:41;;;;;;;11.10;6.30;;;1.40;95.80;;;1.03;61.59;96740.47;5079551;28;20522;-57
2022/12/20 01:58:09;;;;;;;12.30;6.60;;;1.40;95.70;;;1.04;60.95;96737.00;5082041;28;20453;-56
2022/12/20 02:00:37;;;;;;;9.60;6.60;;;1.40;95.80;;;0.97;60.83;96722.47;5083756;28;20977;-56
2022/12/20 02:03:07;;;;;;;16.07;7.20;;;1.40;95.60;;;1.00;60.68;96730.19;5081901;28;20948;-56
2022/12/20 02:05:37;;;;;;;15.00;7.33;;;1.40;95.70;;;0.98;60.54;96734.56;5082210;28;20470;-57
2022/12/20 02:08:05;;;;;;;11.10;7.37;;;1.40;95.60;;;0.98;60.29;96736.31;5084304;28;20466;-56
2022/12/20 02:10:38;;;;;;;9.87;6.53;;;1.40;95.70;;;0.97;61.63;96730.25;5082421;28;20496;-56
2022/12/20 02:13:08;;;;;;;13.90;7.20;;;1.40;95.80;;;0.98;60.33;96737.16;5081201;28;20442;-55
2022/12/20 02:15:42;;;;;;;13.43;8.00;;;1.30;95.70;;;0.96;60.91;96736.34;5083725;28;20998;-56
2022/12/20 02:18:21;;;;;;;12.90;6.87;;;1.30;95.70;;;0.96;60.37;96731.16;5082231;28;20576;-55
2022/12/20 02:21:18;;;;;;;11.63;6.17;;;1.30;95.60;;;0.97;61.09;96730.25;5082263;28;20469;-58
2022/12/20 02:24:31;;;;;;;12.53;7.73;;;1.30;95.70;;;0.96;60.67;96728.56;5080214;28;20482;-56
2022/12/20 02:27:27;;;;;;;12.53;6.83;;;1.30;95.60;;;0.94;60.63;96721.72;5079294;28;20461;-55
2022/12/20 02:30:12;;;;;;;10.50;7.27;;;1.30;95.60;;;0.93;60.76;96727.75;5078560;28;20470;-57
2022/12/20 02:32:43;;;;;;;10.37;5.97;;;1.30;95.60;;;0.91;60.96;96735.56;5082838;28;20461;-56
2022/12/20 02:35:11;;;;;;;10.70;6.53;;;1.30;95.60;;;0.89;60.86;96724.41;5077190;28;20494;-57
2022/12/20 02:37:48;;;;;;;10.77;6.97;;;1.30;95.70;;;0.89;61.37;96734.75;5086374;28;20477;-54
2022/12/20 02:40:16;;;;;;;10.17;6.03;;;1.30;95.70;;;0.86;60.59;96722.72;5070906;28;20474;-54
2022/12/20 02:42:44;;;;;;;13.87;7.83;;;1.30;95.60;;;0.86;61.52;96724.47;5081390;28;20482;-55
2022/12/20 02:45:14;;;;;;;11.17;6.30;;;1.20;95.70;;;0.84;61.57;96727.09;5076877;28;20483;-56
2022/12/20 02:47:48;;;;;;;14.40;7.63;;;1.20;95.70;;;0.81;60.44;96732.34;5078956;28;20443;-56
2022/12/20 02:50:17;;;;;;;13.27;7.60;;;1.20;95.70;;;0.80;60.90;96724.59;5079410;28;20473;-55
2022/12/20 02:52:44;;;;;;;11.47;7.70;;;1.20;95.70;;;0.80;61.31;96719.44;5085762;28;20459;-55
2022/12/20 02:55:11;;;;;;;11.47;7.17;;;1.20;95.80;;;0.79;60.87;96718.59;5083912;28;20539;-55
2022/12/20 02:57:43;;;;;;;11.37;7.87;;;1.20;95.70;;;0.80;61.01;96719.44;5087749;28;20458;-55
2022/12/20 03:00:14;;;;;;;10.73;6.63;;;1.20;95.80;;;0.80;61.06;96706.47;5088933;28;20481;-58
2022/12/20 03:05:27;;;;;;;10.20;6.43;;;1.10;95.80;;;0.77;61.40;96703.97;5083950;28;20538;-57
2022/12/20 03:07:54;;;;;;;13.60;7.33;;;1.20;95.80;;;0.73;61.05;96702.31;5084886;28;20462;-55
2022/12/20 03:10:21;;;;;;;12.70;6.70;;;1.10;95.70;;;0.70;60.48;96709.28;5084787;28;20882;-58
2022/12/20 03:12:49;;;;;;;10.83;6.80;;;1.10;95.70;;;0.68;61.02;96699.81;5087691;28;20454;-57
2022/12/20 03:15:17;;;;;;;11.27;6.80;;;1.10;95.70;;;0.64;61.12;96690.44;5085665;28;20489;-55
2022/12/20 03:17:45;;;;;;;11.80;6.37;;;1.00;95.70;;;0.64;61.45;96704.22;5086553;28;20449;-55
2022/12/20 03:20:12;;;;;;;11.23;6.77;;;1.00;95.70;;;0.62;60.44;96694.78;5081822;28;20605;-57
2022/12/20 03:22:39;;;;;;;11.27;7.03;;;1.00;95.70;;;0.61;60.46;96700.88;5088598;28;20599;-57
2022/12/20 03:25:08;;;;;;;7.83;6.57;;;1.00;95.70;;;0.56;61.23;96692.31;5082257;28;20911;-57
2022/12/20 03:27:35;;;;;;;10.07;6.00;;;1.00;95.60;;;0.52;60.74;96705.34;5083435;28;20446;-58
2022/12/20 03:30:03;;;;;;;11.87;7.37;;;0.90;95.60;;;0.51;60.87;96692.44;5084657;28;21025;-55
2022/12/20 03:32:32;;;;;;;11.93;6.77;;;0.90;95.60;;;0.49;61.10;96700.22;5087014;28;20928;-56
2022/12/20 03:34:59;;;;;;;8.63;6.27;;;0.90;95.60;;;0.47;60.44;96698.59;5083517;28;20471;-57
2022/12/20 03:37:26;;;;;;;13.73;5.97;;;0.80;95.60;;;0.45;60.39;96697.75;5084140;28;20702;-56
2022/12/20 03:39:53;;;;;;;13.07;7.03;;;0.80;95.50;;;0.42;61.43;96693.50;5080291;28;20854;-57
2022/12/20 03:42:21;;;;;;;15.97;7.97;;;0.90;95.60;;;0.41;60.48;96690.94;5086896;28;20502;-56
2022/12/20 03:44:48;;;;;;;13.60;7.90;;;0.80;95.60;;;0.41;60.76;96685.78;5083779;28;20814;-58
2022/12/20 03:47:15;;;;;;;14.47;7.27;;;0.80;95.70;;;0.38;60.58;96691.00;5083326;28;21044;-56
2022/12/20 03:49:44;;;;;;;10.47;7.37;;;0.80;95.90;;;0.35;60.80;96687.59;5079946;28;21005;-57
2022/12/20 03:52:12;;;;;;;19.40;7.77;;;0.80;95.70;;;0.31;61.37;96685.97;5081521;28;20462;-57
2022/12/20 03:54:39;;;;;;;18.67;7.53;;;0.70;95.60;;;0.30;61.24;96688.59;5083636;28;20493;-56
2022/12/20 03:57:06;;;;;;;11.83;8.03;;;0.70;95.70;;;0.29;61.13;96690.31;5078920;28;20450;-57
2022/12/20 03:59:34;;;;;;;12.03;7.57;;;0.70;95.70;;;0.30;61.17;96693.75;5088442;28;20481;-57
2022/12/20 04:02:01;;;;;;;11.37;6.77;;;0.70;95.70;;;0.29;61.36;96687.72;5082887;28;20840;-54
2022/12/20 04:04:28;;;;;;;14.50;7.37;;;0.70;95.80;;;0.31;61.20;96695.44;5082493;28;20497;-56
2022/12/20 04:06:57;;;;;;;16.10;8.00;;;0.70;95.80;;;0.33;60.64;96697.13;5084030;28;20465;-55
2022/12/20 04:09:24;;;;;;;13.50;8.30;;;0.70;95.80;;;0.33;61.01;96694.53;5083310;28;20465;-57
2022/12/20 04:11:52;;;;;;;16.67;8.27;;;0.70;95.90;;;0.35;62.01;96697.09;5085761;28;20837;-54
2022/12/20 04:14:19;;;;;;;12.73;7.63;;;0.70;95.90;;;0.34;61.44;96693.66;5085622;28;20993;-55
2022/12/20 04:16:46;;;;;;;16.03;7.70;;;0.70;95.80;;;0.33;61.18;96694.53;5085372;28;20830;-57
2022/12/20 04:19:13;;;;;;;12.40;7.60;;;0.70;95.70;;;0.31;61.37;96696.31;5088855;28;20899;-57
2022/12/20 04:21:41;;;;;;;12.27;7.73;;;0.70;95.70;;;0.31;61.09;96691.16;5083011;28;20938;-57
2022/12/20 04:24:10;;;;;;;13.20;8.40;;;0.70;95.70;;;0.32;61.33;96686.81;5087028;28;20835;-57
2022/12/20 04:26:37;;;;;;;14.17;8.83;;;0.70;95.70;;;0.32;60.79;96692.81;5079613;28;20473;-57
2022/12/20 04:29:05;;;;;;;17.07;8.53;;;0.70;95.80;;;0.31;61.36;96683.38;5083517;28;20519;-55
2022/12/20 04:31:32;;;;;;;11.90;7.60;;;0.70;95.80;;;0.31;61.50;96688.56;5084131;28;21075;-57
2022/12/20 04:33:59;;;;;;;19.20;8.97;;;0.70;95.80;;;0.30;61.23;96689.44;5087866;28;20454;-55
2022/12/20 04:36:26;;;;;;;11.77;8.10;;;0.70;95.70;;;0.30;61.28;96678.22;5088533;28;20477;-57
2022/12/20 04:38:54;;;;;;;40.10;20.93;;;0.70;95.80;;;0.30;61.92;96670.47;5078941;28;20446;-58
2022/12/20 04:41:22;;;;;;;37.10;18.57;;;0.70;95.90;;;0.31;61.32;96667.84;5083729;28;20770;-59
2022/12/20 04:43:51;;;;;;;16.33;9.37;;;0.70;95.90;;;0.30;60.85;96675.66;5083068;28;20501;-57
2022/12/20 04:46:18;;;;;;;12.17;8.87;;;0.70;95.80;;;0.28;61.92;96670.50;5084931;28;20506;-57
2022/12/20 04:48:46;;;;;;;10.17;7.30;;;0.70;95.80;;;0.27;61.50;96673.97;5083157;28;20461;-59
2022/12/20 04:51:13;;;;;;;15.20;8.47;;;0.70;96.10;;;0.24;61.88;96674.03;5081472;28;21005;-57
2022/12/20 04:53:48;;;;;;;25.13;12.97;;;0.70;96.10;;;0.28;61.51;96669.63;5079397;28;20511;-55
2022/12/20 04:56:22;;;;;;;15.93;9.63;;;0.70;96.10;;;0.29;61.06;96672.19;5081108;28;20476;-56
2022/12/20 04:58:51;;;;;;;11.87;8.00;;;0.70;96.10;;;0.29;61.47;96672.19;5083800;28;20892;-59
2022/12/20 05:01:18;;;;;;;11.63;7.70;;;0.70;96.10;;;0.30;61.57;96668.72;5077966;28;20497;-56
2022/12/20 05:03:46;;;;;;;18.53;8.57;;;0.70;96.10;;;0.30;61.26;96679.06;5083575;28;20485;-60
2022/12/20 05:06:13;;;;;;;19.00;8.53;;;0.70;96.10;;;0.30;61.01;96675.66;5078832;28;20970;-59
2022/12/20 05:08:41;;;;;;;16.40;9.47;;;0.70;96.10;;;0.28;61.03;96675.69;5080403;28;20599;-59
2022/12/20 05:11:08;;;;;;;12.17;8.23;;;0.70;95.90;;;0.29;61.59;96673.94;5082280;28;20990;-60
2022/12/20 05:13:37;;;;;;;14.50;9.10;;;0.70;95.80;;;0.27;61.48;96673.97;5085411;28;20497;-58
2022/12/20 05:16:05;;;;;;;14.83;8.30;;;0.70;95.90;;;0.27;61.12;96679.13;5081102;28;20541;-59
2022/12/20 05:18:32;;;;;;;19.00;9.90;;;0.70;95.90;;;0.25;61.28;96674.88;5083614;28;21001;-60
2022/12/20 05:26:31;;;;;;;17.10;8.90;;;0.60;95.90;;;0.19;61.56;96683.63;5080284;28;20840;-56
2022/12/20 05:29:00;;;;;;;18.93;8.80;;;0.60;95.90;;;0.19;61.42;96681.03;5079589;28;20534;-58
2022/12/20 05:31:27;;;;;;;13.47;8.93;;;0.60;96.20;;;0.20;61.01;96677.56;5077845;28;20474;-56
2022/12/20 05:33:55;;;;;;;17.80;10.33;;;0.60;96.00;;;0.22;62.13;96685.28;5082431;28;20522;-61
2022/12/20 05:36:22;;;;;;;18.60;9.77;;;0.60;96.10;;;0.23;62.11;96677.50;5080831;28;20486;-58
2022/12/20 05:38:50;;;;;;;16.80;10.70;;;0.60;96.10;;;0.24;61.62;96684.38;5078284;28;20438;-57
2022/12/20 05:41:17;;;;;;;14.17;8.70;;;0.60;96.10;;;0.28;61.56;96695.50;5080449;28;20557;-58
2022/12/20 05:43:44;;;;;;;13.83;9.30;;;0.60;96.10;;;0.28;60.99;96686.03;5082784;28;20482;-57
2022/12/20 05:46:13;;;;;;;17.27;9.40;;;0.70;96.10;;;0.27;61.71;96681.72;5080396;28;20473;-57
2022/12/20 05:48:40;;;;;;;14.97;8.63;;;0.70;96.00;;;0.30;61.35;96689.44;5082023;28;20938;-58
2022/12/20 05:51:08;;;;;;;18.77;10.60;;;0.70;95.90;;;0.31;60.91;96688.56;5082043;28;20494;-57
2022/12/20 05:53:35;;;;;;;15.87;9.30;;;0.70;95.90;;;0.31;61.27;96680.78;5082774;28;21035;-55
2022/12/20 05:56:02;;;;;;;18.80;10.33;;;0.70;95.90;;;0.34;60.83;96685.03;5082746;28;20468;-56
2022/12/20 05:58:30;;;;;;;16.30;9.50;;;0.70;95.90;;;0.37;61.39;96689.28;5078967;28;21001;-57
2022/12/20 06:00:59;;;;;;;18.57;11.23;;;0.70;96.10;;;0.38;61.23;96685.84;5078935;28;20866;-57
2022/12/20 06:03:28;;;;;;;29.33;11.30;;;0.80;96.00;;;0.42;61.25;96690.91;5082558;28;20493;-55
2022/12/20 06:05:55;;;;;;;22.07;10.57;;;0.80;96.00;;;0.46;60.71;96699.44;5080305;28;20470;-56
2022/12/20 06:08:23;;;;;;;18.53;9.93;;;0.80;96.00;;;0.50;61.45;96688.16;5081720;28;20450;-57
2022/12/20 06:10:51;;;;;;;21.60;9.63;;;0.80;95.90;;;0.52;61.73;96689.81;5075343;28;20489;-57
2022/12/20 06:13:18;;;;;;;18.27;9.93;;;0.90;95.90;;;0.58;60.75;96688.84;5082506;28;20502;-57
2022/12/20 06:15:46;;;;;;;22.60;12.37;;;1.00;95.90;;;0.74;62.00;96691.91;5077895;28;20470;-60
2022/12/20 06:18:13;;;;;;;20.30;11.20;;;1.10;96.10;;;1.09;60.46;96689.41;5080428;28;20457;-57
2022/12/20 06:20:42;;;;;;;25.80;11.80;;;1.40;96.10;;;1.52;60.04;96684.00;5078269;28;20489;-57
2022/12/20 06:23:09;;;;;;;27.83;11.73;;;1.90;95.70;;;1.97;59.07;96688.00;5081307;28;20735;-56
2022/12/20 06:25:38;;;;;;;96.13;36.27;;;2.40;95.40;;;2.43;59.88;96694.47;5077847;28;20479;-56
2022/12/20 06:28:06;;;;;;;36.90;18.30;;;2.80;95.10;;;2.87;58.06;96694.03;5080902;28;20456;-57
2022/12/20 06:30:34;;;;;;;42.63;13.80;;;3.30;94.60;;;3.31;58.21;96686.53;5078191;28;20473;-57
2022/12/20 06:33:01;;;;;;;33.57;12.73;;;3.80;94.20;;;3.76;57.00;96685.91;5080068;28;20458;-55
2022/12/20 06:35:28;;;;;;;26.00;12.47;;;4.30;93.50;;;4.25;56.76;96683.28;5078004;28;20539;-55
2022/12/20 06:37:57;;;;;;;27.77;12.20;;;4.80;93.20;;;4.72;56.12;96678.97;5077986;28;20465;-57
2022/12/20 06:40:25;;;;;;;23.90;12.80;;;5.30;92.70;;;5.17;55.08;96676.31;5076309;28;20485;-54
2022/12/20 06:42:52;;;;;;;20.60;12.37;;;5.80;91.80;;;5.59;54.57;96671.97;5080798;28;20437;-57
2022/12/20 06:45:20;;;;;;;27.23;13.70;;;6.30;91.20;;;5.95;53.15;96671.31;5076296;28;20524;-55
2022/12/20 06:47:47;;;;;;;20.53;12.80;;;6.60;90.10;;;6.26;53.45;96670.00;5072397;28;20442;-55
2022/12/20 06:50:14;;;;;;;22.37;12.53;;;6.90;89.40;;;6.47;52.36;96660.31;5075586;28;20964;-55
2022/12/20 06:52:42;;;;;;;23.63;12.47;;;7.20;87.90;;;6.67;52.79;96663.78;5073170;28;20450;-55
2022/12/20 06:55:10;;;;;;;25.50;15.63;;;7.50;87.20;;;7.00;51.78;96661.34;5076950;28;20885;-57
2022/12/20 06:57:38;;;;;;;25.50;16.63;;;7.80;85.50;;;7.34;51.32;96657.06;5076773;28;20442;-55
2022/12/20 07:00:09;;;;;;;21.63;11.70;;;8.10;84.90;;;7.66;49.92;96654.63;5077382;28;20470;-57
2022/12/20 07:02:36;;;;;;;20.43;11.80;;;8.40;81.50;;;7.93;50.50;96646.28;5077115;28;20439;-56
2022/12/20 07:05:04;;;;;;;21.43;11.10;;;8.60;82.50;;;8.15;49.75;96651.25;5080615;28;20497;-56
2022/12/20 07:07:31;;;;;;;25.57;12.03;;;8.80;81.40;;;8.43;47.76;96659.38;5077013;28;20800;-58
2022/12/20 07:09:59;;;;;;;25.47;11.47;;;9.10;76.60;;;8.78;49.43;96650.50;5080566;28;20823;-55
2022/12/20 07:12:27;;;;;;;33.73;15.10;;;9.40;81.10;;;9.20;48.99;96654.31;5077464;28;20562;-55
2022/12/20 07:14:55;;;;;;;27.33;17.37;;;9.80;79.70;;;9.53;47.16;96640.16;5082605;28;20537;-55
2022/12/20 07:17:22;;;;;;;30.73;15.23;;;10.20;74.10;;;9.83;47.38;96645.38;5076778;28;20963;-55
2022/12/20 07:19:49;;;;;;;25.17;14.77;;;10.50;74.70;;;10.10;45.89;96646.44;5080493;28;20494;-57
2022/12/20 07:22:17;;;;;;;31.70;16.93;;;10.80;70.50;;;10.38;45.59;96651.75;5077879;28;20465;-57
2022/12/20 07:24:44;;;;;;;29.03;14.77;;;11.00;70.30;;;10.63;44.63;96646.72;5081166;28;20574;-55
2022/12/20 07:27:11;;;;;;;26.43;13.90;;;11.30;67.70;;;10.88;43.54;96640.78;5077246;28;20463;-55
2022/12/20 07:29:40;;;;;;;30.03;12.93;;;11.50;65.80;;;11.03;44.18;96650.34;5080351;28;20581;-56
2022/12/20 07:32:08;;;;;;;27.57;15.37;;;11.70;66.90;;;11.15;43.44;96647.84;5077404;28;20907;-57
2022/12/20 07:34:37;;;;;;;29.13;14.37;;;11.80;64.70;;;11.29;43.19;96647.78;5080665;28;20477;-56
2022/12/20 07:37:04;;;;;;;28.87;14.90;;;11.90;63.60;;;11.43;42.50;96634.56;5078236;28;20454;-55
2022/12/20 07:39:31;;;;;;;20.97;13.17;;;12.00;62.60;;;11.56;42.31;96639.03;5072674;28;21033;-57
2022/12/20 07:41:59;;;;;;;20.50;11.37;;;12.10;62.50;;;11.65;37.96;96641.03;5082785;28;20446;-57
2022/12/20 07:44:26;;;;;;;13.97;9.93;;;12.10;55.10;;;11.72;39.72;96647.56;5081666;28;20513;-57
2022/12/20 07:46:55;;;;;;;18.50;12.03;;;12.20;56.40;;;11.84;40.25;96643.28;5082662;28;20508;-55
2022/12/20 07:49:22;;;;;;;19.17;12.17;;;12.30;57.50;;;11.91;37.96;96636.63;5080976;28;20973;-58
2022/12/20 07:51:52;;;;;;;16.57;11.57;;;12.30;56.10;;;11.91;36.05;96630.50;5083308;28;20465;-55
2022/12/20 07:54:22;;;;;;;17.30;11.87;;;12.30;53.00;;;11.87;39.23;96631.66;5080441;28;20843;-56
2022/12/20 07:56:52;;;;;;;20.13;10.17;;;12.20;56.00;;;11.75;39.28;96628.09;5082331;28;20442;-55
2022/12/20 07:59:23;;;;;;;19.67;11.33;;;12.10;55.60;;;11.58;39.66;96634.50;5082314;28;21092;-58
2022/12/20 08:01:50;;;;;;;17.40;10.10;;;11.90;56.20;;;11.50;40.15;96634.16;5083520;28;20827;-58
2022/12/20 08:04:21;;;;;;;18.90;9.50;;;11.80;56.60;;;11.55;40.04;96630.25;5080698;28;20514;-56
2022/12/20 08:06:49;;;;;;;16.77;10.07;;;11.70;56.60;;;11.60;39.33;96627.31;5082405;28;20513;-55
2022/12/20 08:09:16;;;;;;;15.83;10.87;;;11.70;56.00;;;11.57;39.36;96624.88;5081421;28;20458;-55
2022/12/20 08:11:45;;;;;;;23.83;12.13;;;11.70;55.80;;;11.64;39.66;96631.44;5081590;28;20450;-56
2022/12/20 08:14:12;;;;;;;22.70;10.70;;;11.70;56.30;;;11.79;38.53;96621.66;5077233;28;20855;-55
2022/12/20 08:16:40;;;;;;;17.77;10.50;;;11.80;54.40;;;11.94;38.03;96622.44;5081599;28;20540;-56
2022/12/20 08:19:07;;;;;;;19.07;10.93;;;11.90;54.00;;;12.08;38.54;96619.69;5081064;28;20546;-56
2022/12/20 08:21:36;;;;;;;17.83;10.63;;;12.00;54.70;;;12.19;38.22;96616.31;5081393;28;20946;-54
2022/12/20 08:24:04;;;;;;;15.67;10.37;;;12.20;54.80;;;12.34;37.98;96614.41;5081447;28;20485;-54
2022/12/20 08:26:31;;;;;;;18.80;9.90;;;12.30;54.20;;;12.47;37.49;96609.97;5080986;28;20460;-56
2022/12/20 08:28:58;;;;;;;21.67;12.10;;;12.40;53.70;;;12.54;38.31;96605.06;5081755;28;20457;-60
2022/12/20 08:31:26;;;;;;;15.50;10.40;;;12.50;54.80;;;12.63;38.10;96607.06;5076515;28;20467;-56
2022/12/20 08:33:54;;;;;;;19.47;11.37;;;12.60;53.90;;;12.60;37.14;96603.81;5081735;28;20830;-60
2022/12/20 08:36:22;;;;;;;18.50;10.70;;;12.60;53.20;;;12.47;37.17;96607.31;5080165;28;20482;-57
2022/12/20 08:38:51;;;;;;;18.73;10.33;;;12.60;52.60;;;12.44;37.84;96609.31;5082338;28;20486;-56
2022/12/20 08:41:18;;;;;;;13.30;9.20;;;12.50;53.70;;;12.49;37.54;96612.47;5078622;28;20465;-56
2022/12/20 08:43:45;;;;;;;19.30;10.40;;;12.50;53.60;;;12.40;37.32;96610.50;5080609;28;20472;-57
2022/12/20 08:46:13;;;;;;;15.97;10.40;;;12.50;53.00;;;12.38;35.46;96605.31;5079340;28;21006;-58
2022/12/20 08:48:40;;;;;;;17.13;10.60;;;12.50;50.70;;;12.43;37.10;96605.00;5083088;28;20454;-56
2022/12/20 08:51:09;;;;;;;18.10;11.57;;;12.50;52.40;;;12.49;36.75;96608.03;5080265;28;20470;-58
2022/12/20 08:53:36;;;;;;;14.50;9.83;;;12.50;51.80;;;12.47;36.91;96607.31;5082882;28;20446;-56
2022/12/20 08:56:06;;;;;;;12.50;8.93;;;12.50;52.20;;;12.41;31.82;96599.84;5079420;28;20803;-58
2022/12/20 08:58:34;;;;;;;17.47;10.17;;;12.40;46.10;;;12.22;31.82;96596.78;5085658;28;20446;-57
2022/12/20 09:01:01;;;;;;;12.03;8.90;;;12.20;45.20;;;12.07;36.31;96599.56;5081299;28;20986;-56
2022/12/20 09:03:30;;;;;;;15.43;8.80;;;12.00;50.30;;;12.07;35.13;96596.91;5082664;28;20468;-57
2022/12/20 09:05:57;;;;;;;15.70;9.80;;;12.00;48.10;;;12.02;36.37;96585.81;5079715;28;20497;-55
2022/12/20 09:08:25;;;;;;;12.90;9.97;;;11.90;50.70;;;12.05;36.18;96588.25;5079681;28;20442;-54
2022/12/20 09:10:52;;;;;;;20.83;11.30;;;11.90;50.60;;;12.28;36.58;96589.28;5077277;28;20998;-57
2022/12/20 09:13:21;;;;;;;14.30;9.10;;;12.10;51.10;;;12.56;36.10;96576.75;5083687;28;20540;-55
2022/12/20 09:15:49;;;;;;;14.73;9.90;;;12.40;51.20;;;12.79;35.57;96571.63;5084651;28;20839;-57
2022/12/20 09:18:16;;;;;;;12.00;9.17;;;12.60;50.50;;;12.96;35.83;96571.25;5083868;28;20454;-56
2022/12/20 09:20:45;;;;;;;16.40;10.63;;;12.80;50.50;;;13.07;34.48;96573.97;5082593;28;20470;-56
2022/12/20 09:23:12;;;;;;;17.30;10.40;;;12.90;47.90;;;13.18;35.04;96565.22;5086239;28;20482;-57
2022/12/20 09:25:40;;;;;;;20.23;10.13;;;13.00;48.80;;;13.37;34.65;96566.50;5082951;28;20490;-56
2022/12/20 09:28:07;;;;;;;16.73;10.10;;;13.20;49.00;;;13.51;34.11;96560.19;5080651;28;20765;-54
2022/12/20 09:30:36;;;;;;;14.53;9.33;;;13.30;48.90;;;13.69;34.83;96555.31;5082085;28;20485;-57
2022/12/20 09:33:03;;;;;;;15.80;9.87;;;13.50;49.20;;;13.90;34.79;96545.72;5083195;28;20446;-56
2022/12/20 09:35:32;;;;;;;17.07;10.57;;;13.70;49.40;;;14.13;32.05;96548.38;5080372;28;20477;-57
2022/12/20 09:37:59;;;;;;;15.03;9.70;;;14.00;47.10;;;14.27;33.39;96549.94;5083533;28;20461;-57
2022/12/20 09:40:31;;;;;;;15.53;9.00;;;14.10;47.60;;;14.48;33.71;96548.25;5080225;28;20465;-57
2022/12/20 09:42:58;;;;;;;13.93;9.63;;;14.30;47.90;;;14.73;32.64;96543.63;5083756;28;20446;-58
2022/12/20 09:45:27;;;;;;;14.30;9.50;;;14.40;46.60;;;14.94;33.15;96543.72;5081306;28;20547;-57
2022/12/20 09:47:56;;;;;;;12.87;10.13;;;14.70;47.10;;;15.20;32.32;96538.09;5084239;28;20461;-55
2022/12/20 09:50:36;;;;;;;18.27;10.97;;;14.90;46.80;;;15.42;32.10;96521.22;5078338;28;20466;-55
2022/12/20 09:53:13;;;;;;;17.90;10.47;;;15.20;46.70;;;15.60;31.53;96522.31;5080550;28;20484;-57
2022/12/20 09:55:44;;;;;;;19.23;10.47;;;15.40;45.50;;;15.71;31.54;96524.06;5082128;28;20505;-56
2022/12/20 09:58:54;;;;;;;15.23;10.50;;;15.50;45.40;;;15.94;30.81;96510.63;5078565;28;20461;-56
2022/12/20 10:01:23;;;;;;;16.87;10.00;;;15.70;44.10;;;16.10;28.00;96505.69;5066034;28;20489;-57
2022/12/20 10:03:52;;;;;;;16.47;10.80;;;15.90;41.30;;;16.15;30.11;96492.00;5083131;28;20446;-57
2022/12/20 10:06:26;;;;;;;20.10;11.80;;;15.90;42.10;;;16.08;28.04;96496.16;5083935;28;20504;-57
2022/12/20 10:08:57;;;;;;;19.23;10.30;;;15.80;40.10;;;15.92;27.58;96496.66;5083312;28;20481;-58
2022/12/20 10:11:44;;;;;;;16.10;9.17;;;15.70;38.20;;;15.93;28.08;96487.75;5084005;28;20466;-57
2022/12/20 10:14:25;;;;;;;14.40;9.97;;;15.70;41.20;;;16.07;28.86;96482.06;5077029;28;20879;-55
2022/12/20 10:16:55;;;;;;;31.63;11.23;;;15.80;41.00;;;16.09;29.84;96461.53;5079090;28;20955;-58
2022/12/20 10:19:54;;;;;;;71.27;10.87;;;15.80;42.20;;;15.94;30.03;96458.44;5081854;28;20464;-57
2022/12/20 10:22:25;;;;;;;31.73;9.67;;;15.80;42.50;;;15.72;30.37;96461.22;5079907;28;20460;-55
2022/12/20 10:24:58;;;;;;;16.17;9.73;;;15.70;42.50;;;15.48;30.15;96450.91;5077951;28;20505;-55
2022/12/20 10:27:25;;;;;;;17.70;9.90;;;15.60;41.90;;;15.29;29.90;96436.59;5083625;28;20958;-57
2022/12/20 10:29:53;;;;;;;38.47;10.43;;;15.40;41.20;;;15.37;30.58;96436.75;5078558;28;20483;-57
2022/12/20 10:32:23;;;;;;;16.00;9.70;;;15.30;42.60;;;15.77;30.65;96430.72;5079952;28;20957;-57
2022/12/20 10:34:56;;;;;;;17.63;10.40;;;15.40;42.80;;;16.19;29.76;96418.25;5078941;28;20466;-59
2022/12/20 10:37:23;;;;;;;15.60;10.87;;;15.80;42.90;;;16.35;29.85;96418.56;5084233;28;20965;-55